createdAt,value
2017-08-21T00:02:04.168Z,2.00
2017-08-21T00:04:32.421Z,2.53
2017-08-21T00:07:00.699Z,2.10
2017-08-21T00:09:29.001Z,1.90
2017-08-21T00:11:57.290Z,2.13
2017-08-21T00:14:25.545Z,1.87
2017-08-21T00:16:53.808Z,1.53
2017-08-21T00:19:22.064Z,1.70
2017-08-21T00:21:50.339Z,1.67
2017-08-21T00:24:18.641Z,1.30
2017-08-21T00:26:46.935Z,1.83
2017-08-21T00:29:15.191Z,1.70
2017-08-21T00:31:43.483Z,1.50
2017-08-21T00:34:11.771Z,1.80
2017-08-21T00:36:40.785Z,1.50
2017-08-21T00:39:09.057Z,1.50
2017-08-21T00:41:37.310Z,1.50
2017-08-21T00:44:05.587Z,1.40
2017-08-21T00:46:33.892Z,1.50
2017-08-21T00:49:02.144Z,1.40
2017-08-21T00:51:31.262Z,1.30
2017-08-21T00:53:59.801Z,1.20
2017-08-21T00:56:28.846Z,1.43
2017-08-21T00:58:57.127Z,1.20
2017-08-21T01:01:26.203Z,1.37
2017-08-21T01:03:55.255Z,1.50
2017-08-21T01:06:23.517Z,1.40
2017-08-21T01:08:51.810Z,1.30
2017-08-21T01:11:20.820Z,1.30
2017-08-21T01:13:49.069Z,1.30
2017-08-21T01:16:17.337Z,1.13
2017-08-21T01:18:45.585Z,1.73
2017-08-21T01:21:13.321Z,1.10
2017-08-21T01:23:41.797Z,1.13
2017-08-21T01:26:10.058Z,1.40
2017-08-21T01:28:38.308Z,1.20
2017-08-21T01:31:06.866Z,1.23
2017-08-21T01:33:35.906Z,1.10
2017-08-21T01:36:04.190Z,1.10
2017-08-21T01:38:33.270Z,1.00
2017-08-21T01:41:02.285Z,1.10
2017-08-21T01:43:30.621Z,1.20
2017-08-21T01:45:59.657Z,1.00
2017-08-21T01:48:27.909Z,1.00
2017-08-21T01:50:56.157Z,1.00
2017-08-21T01:53:24.425Z,1.07
2017-08-21T01:55:52.706Z,1.10
2017-08-21T01:58:20.964Z,1.20
2017-08-21T02:00:49.302Z,2.10
2017-08-21T02:03:17.552Z,2.57
2017-08-21T02:05:45.913Z,2.43
2017-08-21T02:08:14.185Z,2.70
2017-08-21T02:10:42.444Z,2.50
2017-08-21T02:13:10.721Z,2.73
2017-08-21T02:15:38.984Z,2.43
2017-08-21T02:18:07.237Z,2.40
2017-08-21T02:20:35.296Z,2.50
2017-08-21T02:23:03.560Z,2.07
2017-08-21T02:25:31.846Z,2.37
2017-08-21T02:28:00.852Z,2.83
2017-08-21T02:30:29.167Z,2.20
2017-08-21T02:32:58.232Z,2.67
2017-08-21T02:35:26.476Z,2.23
2017-08-21T02:37:55.312Z,2.60
2017-08-21T02:40:23.568Z,2.50
2017-08-21T02:42:51.842Z,2.60
2017-08-21T02:45:20.131Z,2.40
2017-08-21T02:47:48.422Z,2.67
2017-08-21T02:50:17.437Z,2.50
2017-08-21T02:52:45.718Z,2.60
2017-08-21T02:55:13.969Z,2.93
2017-08-21T02:57:42.218Z,2.77
2017-08-21T03:00:10.505Z,2.40
2017-08-21T03:02:38.744Z,2.83
2017-08-21T03:05:07.031Z,2.97
2017-08-21T03:07:35.421Z,2.60
2017-08-21T03:10:04.476Z,2.47
2017-08-21T03:12:32.725Z,2.37
2017-08-21T03:15:01.006Z,2.90
2017-08-21T03:17:29.260Z,2.87
2017-08-21T03:19:57.508Z,2.80
2017-08-21T03:22:25.768Z,2.40
2017-08-21T03:24:54.058Z,2.67
2017-08-21T03:27:23.064Z,2.87
2017-08-21T03:29:51.361Z,3.10
2017-08-21T03:32:19.646Z,2.50
2017-08-21T03:34:47.904Z,3.40
2017-08-21T03:37:16.162Z,3.00
2017-08-21T03:39:44.412Z,3.07
2017-08-21T03:42:12.695Z,2.50
2017-08-21T03:44:41.779Z,2.67
2017-08-21T03:47:10.793Z,2.97
2017-08-21T03:49:39.075Z,2.60
2017-08-21T03:52:07.375Z,2.30
2017-08-21T03:54:36.401Z,2.70
2017-08-21T03:57:04.764Z,2.97
2017-08-21T03:59:33.078Z,2.60
2017-08-21T04:02:02.096Z,3.50
2017-08-21T04:04:30.383Z,2.90
2017-08-21T04:06:58.690Z,2.70
2017-08-21T04:09:27.001Z,2.90
2017-08-21T04:11:55.260Z,3.60
2017-08-21T04:14:23.566Z,4.20
2017-08-21T04:16:51.817Z,2.80
2017-08-21T04:19:20.874Z,3.10
2017-08-21T04:21:49.149Z,3.13
2017-08-21T04:24:17.431Z,3.17
2017-08-21T04:26:45.676Z,3.40
2017-08-21T04:29:14.737Z,3.60
2017-08-21T04:31:43.754Z,3.03
2017-08-21T04:34:12.050Z,3.30
2017-08-21T04:36:40.328Z,3.47
2017-08-21T04:39:08.569Z,3.20
2017-08-21T04:41:36.858Z,3.27
2017-08-21T04:44:05.901Z,3.43
2017-08-21T04:46:34.178Z,3.40
2017-08-21T04:49:02.462Z,3.20
2017-08-21T04:51:31.496Z,3.50
2017-08-21T04:53:59.748Z,3.40
2017-08-21T04:56:28.036Z,3.47
2017-08-21T04:58:56.300Z,3.17
2017-08-21T05:01:24.548Z,3.23
2017-08-21T05:03:52.804Z,3.60
2017-08-21T05:06:21.122Z,3.70
2017-08-21T05:08:49.404Z,3.43
2017-08-21T05:11:17.701Z,3.43
2017-08-21T05:13:45.990Z,3.30
2017-08-21T05:16:14.245Z,3.80
2017-08-21T05:18:42.540Z,3.80
2017-08-21T05:21:10.838Z,3.57
2017-08-21T05:23:39.113Z,3.67
2017-08-21T05:26:08.161Z,3.80
2017-08-21T05:28:36.449Z,3.83
2017-08-21T05:31:05.498Z,3.90
2017-08-21T05:33:33.744Z,3.50
2017-08-21T05:36:02.019Z,3.27
2017-08-21T05:38:30.299Z,3.10
2017-08-21T05:40:59.375Z,2.77
2017-08-21T05:43:27.675Z,2.60
2017-08-21T05:45:55.966Z,2.40
2017-08-21T05:48:24.251Z,2.23
2017-08-21T05:50:52.529Z,2.93
2017-08-21T05:53:20.776Z,2.50
2017-08-21T05:55:49.023Z,2.20
2017-08-21T05:58:17.327Z,2.47
2017-08-21T06:00:45.605Z,2.13
2017-08-21T06:03:13.894Z,2.43
2017-08-21T06:05:42.161Z,2.20
2017-08-21T06:08:10.413Z,2.10
2017-08-21T06:10:38.661Z,1.70
2017-08-21T06:13:06.963Z,2.00
2017-08-21T06:15:36.012Z,1.63
2017-08-21T06:18:04.298Z,1.70
2017-08-21T06:20:32.598Z,1.60
2017-08-21T06:23:00.840Z,2.10
2017-08-21T06:25:29.222Z,1.90
2017-08-21T06:27:57.518Z,1.73
2017-08-21T06:30:25.768Z,1.73
2017-08-21T06:32:54.059Z,1.47
2017-08-21T06:35:23.135Z,1.83
2017-08-21T06:37:52.181Z,1.73
2017-08-21T06:40:20.232Z,2.20
2017-08-21T06:42:48.497Z,1.60
2017-08-21T06:45:16.748Z,1.50
2017-08-21T06:47:45.004Z,1.20
2017-08-21T06:50:13.269Z,1.60
2017-08-21T06:52:41.511Z,1.97
2017-08-21T06:55:09.760Z,1.60
2017-08-21T06:57:38.028Z,1.90
2017-08-21T07:00:06.343Z,1.70
2017-08-21T07:02:34.655Z,1.30
2017-08-21T07:05:02.953Z,1.40
2017-08-21T07:07:31.247Z,1.33
2017-08-21T07:09:59.507Z,1.23
2017-08-21T07:12:27.782Z,1.37
2017-08-21T07:14:56.077Z,1.60
2017-08-21T07:17:25.016Z,1.47
2017-08-21T07:19:53.326Z,1.50
2017-08-21T07:22:21.627Z,1.40
2017-08-21T07:24:49.876Z,1.47
2017-08-21T07:27:18.712Z,1.50
2017-08-21T07:29:46.818Z,1.30
2017-08-21T07:32:15.105Z,1.10
2017-08-21T07:34:43.368Z,1.10
2017-08-21T07:37:11.614Z,1.27
2017-08-21T07:39:39.868Z,1.30
2017-08-21T07:42:08.182Z,1.50
2017-08-21T07:44:36.436Z,1.20
2017-08-21T07:47:04.866Z,1.30
2017-08-21T07:49:33.176Z,1.40
2017-08-21T07:52:02.230Z,1.23
2017-08-21T07:54:30.526Z,1.20
2017-08-21T07:56:59.569Z,1.40
2017-08-21T07:59:27.862Z,1.30
2017-08-21T08:01:56.877Z,1.03
2017-08-21T08:04:25.165Z,1.23
2017-08-21T08:06:53.408Z,1.47
2017-08-21T08:09:21.653Z,1.40
2017-08-21T08:11:49.981Z,1.20
2017-08-21T08:14:21.437Z,1.23
2017-08-21T08:16:49.778Z,1.20
2017-08-21T08:19:18.812Z,1.30
2017-08-21T08:21:47.146Z,1.43
2017-08-21T08:24:15.397Z,1.40
2017-08-21T08:26:43.706Z,1.37
2017-08-21T08:29:11.949Z,1.30
2017-08-21T08:31:40.234Z,1.40
2017-08-21T08:34:08.500Z,1.60
2017-08-21T08:36:37.551Z,1.37
2017-08-21T08:39:05.536Z,1.30
2017-08-21T08:41:33.796Z,1.20
2017-08-21T08:44:02.466Z,1.20
2017-08-21T08:46:30.712Z,1.40
2017-08-21T08:48:59.789Z,1.37
2017-08-21T08:51:28.080Z,1.70
2017-08-21T08:53:56.354Z,1.27
2017-08-21T08:56:24.613Z,1.80
2017-08-21T08:58:52.865Z,1.50
2017-08-21T09:01:21.121Z,1.30
2017-08-21T09:03:49.393Z,1.40
2017-08-21T09:06:17.642Z,1.30
2017-08-21T09:08:45.889Z,1.10
2017-08-21T09:11:14.199Z,1.50
2017-08-21T09:13:42.503Z,1.30
2017-08-21T09:16:11.328Z,1.20
2017-08-21T09:18:39.624Z,1.43
2017-08-21T09:21:08.675Z,1.03
2017-08-21T09:23:36.968Z,1.27
2017-08-21T09:26:05.993Z,1.40
2017-08-21T09:28:34.279Z,1.43
2017-08-21T09:31:02.777Z,1.33
2017-08-21T09:33:31.857Z,1.20
2017-08-21T09:36:00.908Z,1.43
2017-08-21T09:38:29.211Z,1.13
2017-08-21T09:40:57.477Z,1.43
2017-08-21T09:43:25.759Z,1.20
2017-08-21T09:45:54.059Z,1.10
2017-08-21T09:48:22.359Z,1.10
2017-08-21T09:50:50.648Z,1.20
2017-08-21T09:53:18.907Z,1.30
2017-08-21T09:55:47.201Z,1.30
2017-08-21T09:58:15.513Z,1.00
2017-08-21T10:00:43.794Z,1.50
2017-08-21T10:03:12.101Z,1.23
2017-08-21T10:05:40.357Z,1.00
2017-08-21T10:08:09.408Z,1.00
2017-08-21T10:10:37.678Z,1.20
2017-08-21T10:13:05.737Z,1.17
2017-08-21T10:15:33.980Z,1.00
2017-08-21T10:18:02.293Z,1.10
2017-08-21T10:20:30.581Z,1.20
2017-08-21T10:22:58.840Z,1.20
2017-08-21T10:25:27.138Z,1.10
2017-08-21T10:27:56.152Z,1.00
2017-08-21T10:30:24.444Z,1.23
2017-08-21T10:32:52.750Z,1.10
2017-08-21T10:35:21.815Z,1.00
2017-08-21T10:37:50.832Z,1.20
2017-08-21T10:40:19.147Z,0.90
2017-08-21T10:42:47.430Z,1.03
2017-08-21T10:45:16.465Z,0.90
2017-08-21T10:47:44.729Z,1.10
2017-08-21T10:50:13.071Z,1.40
2017-08-21T10:52:41.382Z,1.10
2017-08-21T10:55:10.464Z,0.80
2017-08-21T10:57:38.717Z,1.10
2017-08-21T11:00:07.729Z,1.10
2017-08-21T11:02:36.114Z,1.20
2017-08-21T11:05:04.360Z,1.10
2017-08-21T11:07:32.641Z,1.03
2017-08-21T11:10:00.900Z,1.00
2017-08-21T11:12:29.187Z,0.90
2017-08-21T11:14:57.482Z,0.83
2017-08-21T11:17:25.749Z,1.10
2017-08-21T11:19:54.030Z,0.90
2017-08-21T11:22:22.320Z,1.00
2017-08-21T11:24:50.643Z,0.90
2017-08-21T11:27:18.894Z,1.10
2017-08-21T11:29:47.190Z,0.90
2017-08-21T11:32:15.449Z,1.30
2017-08-21T11:34:43.701Z,0.90
2017-08-21T11:37:11.986Z,0.80
2017-08-21T11:39:40.258Z,0.90
2017-08-21T11:42:09.270Z,0.90
2017-08-21T11:44:37.516Z,1.00
2017-08-21T11:47:05.909Z,0.87
2017-08-21T11:49:34.145Z,1.20
2017-08-21T11:52:02.401Z,0.80
2017-08-21T11:54:30.668Z,0.80
2017-08-21T11:56:58.912Z,1.13
2017-08-21T11:59:27.208Z,0.90
2017-08-21T12:01:55.510Z,0.90
2017-08-21T12:04:24.559Z,1.20
2017-08-21T12:06:52.842Z,0.77
2017-08-21T12:09:21.149Z,0.70
2017-08-21T12:11:49.398Z,0.90
2017-08-21T12:14:17.636Z,0.90
2017-08-21T12:16:46.711Z,0.90
2017-08-21T12:19:15.725Z,0.80
2017-08-21T12:21:44.018Z,0.80
2017-08-21T12:24:12.288Z,0.80
2017-08-21T12:26:40.536Z,1.00
2017-08-21T12:29:08.818Z,0.90
2017-08-21T12:31:37.088Z,0.80
2017-08-21T12:34:06.101Z,1.03
2017-08-21T12:36:34.352Z,0.80
2017-08-21T12:39:02.430Z,0.80
2017-08-21T12:41:30.719Z,0.90
2017-08-21T12:43:58.976Z,0.80
2017-08-21T12:46:27.288Z,1.00
2017-08-21T12:48:55.567Z,0.93
2017-08-21T12:51:23.817Z,0.90
2017-08-21T12:53:52.135Z,0.80
2017-08-21T12:56:20.471Z,0.97
2017-08-21T12:58:48.722Z,0.80
2017-08-21T13:01:17.022Z,0.93
2017-08-21T13:03:46.045Z,1.00
2017-08-21T13:06:14.326Z,1.50
2017-08-21T13:08:42.601Z,0.87
2017-08-21T13:11:10.884Z,0.80
2017-08-21T13:13:38.952Z,1.10
2017-08-21T13:16:08.031Z,1.53
2017-08-21T13:18:37.046Z,1.30
2017-08-21T13:21:05.293Z,1.10
2017-08-21T13:23:33.590Z,0.90
2017-08-21T13:26:01.878Z,1.10
2017-08-21T13:28:30.926Z,1.10
2017-08-21T13:30:59.222Z,1.00
2017-08-21T13:33:28.267Z,1.20
2017-08-21T13:35:56.516Z,1.30
2017-08-21T13:38:24.796Z,1.37
2017-08-21T13:40:53.078Z,1.03
2017-08-21T13:43:22.100Z,1.10
2017-08-21T13:45:50.383Z,1.10
2017-08-21T13:48:19.351Z,0.93
2017-08-21T13:50:47.678Z,1.10
2017-08-21T13:53:15.970Z,1.10
2017-08-21T13:55:44.237Z,1.10
2017-08-21T13:58:12.529Z,1.00
2017-08-21T14:00:40.867Z,0.93
2017-08-21T14:03:09.149Z,1.10
2017-08-21T14:05:37.450Z,0.90
2017-08-21T14:08:05.794Z,1.10
2017-08-21T14:10:34.845Z,1.00
2017-08-21T14:13:03.135Z,1.00
2017-08-21T14:15:31.404Z,0.90
2017-08-21T14:17:59.700Z,1.10
2017-08-21T14:20:27.938Z,0.83
2017-08-21T14:22:56.209Z,0.90
2017-08-21T14:25:24.580Z,1.00
2017-08-21T14:27:52.895Z,1.13
2017-08-21T14:30:21.204Z,0.90
2017-08-21T14:32:49.494Z,1.10
2017-08-21T14:35:17.786Z,0.90
2017-08-21T14:37:46.059Z,0.80
2017-08-21T14:40:14.310Z,0.93
2017-08-21T14:42:42.590Z,0.90
2017-08-21T14:45:10.911Z,0.90
2017-08-21T14:47:39.958Z,1.20
2017-08-21T14:50:08.244Z,0.90
2017-08-21T14:52:36.533Z,0.93
2017-08-21T14:55:05.546Z,0.90
2017-08-21T14:57:33.802Z,1.20
2017-08-21T15:00:02.073Z,1.10
2017-08-21T15:02:30.362Z,0.90
2017-08-21T15:04:58.663Z,0.90
2017-08-21T15:07:26.766Z,1.00
2017-08-21T15:09:55.021Z,0.90
2017-08-21T15:12:23.306Z,0.90
2017-08-21T15:14:51.564Z,1.03
2017-08-21T15:17:52.035Z,1.17
2017-08-21T15:20:20.344Z,1.10
2017-08-21T15:22:48.600Z,0.90
2017-08-21T15:25:16.665Z,0.90
2017-08-21T15:27:44.978Z,1.20
2017-08-21T15:30:13.270Z,0.90
2017-08-21T15:32:41.550Z,0.90
2017-08-21T15:35:09.816Z,1.00
2017-08-21T15:37:38.073Z,1.13
2017-08-21T15:40:06.338Z,0.90
2017-08-21T15:42:34.643Z,0.90
2017-08-21T15:45:02.893Z,0.90
2017-08-21T15:47:31.174Z,0.90
2017-08-21T15:49:59.443Z,0.80
2017-08-21T15:52:27.693Z,0.90
2017-08-21T15:54:55.954Z,0.70
2017-08-21T15:57:24.254Z,0.70
2017-08-21T15:59:52.546Z,1.00
2017-08-21T16:02:20.801Z,0.80
2017-08-21T16:04:49.211Z,0.80
2017-08-21T16:07:17.465Z,0.80
2017-08-21T16:09:45.746Z,0.90
2017-08-21T16:12:14.054Z,0.80
2017-08-21T16:14:42.349Z,0.80
2017-08-21T16:17:10.645Z,0.80
2017-08-21T16:19:38.941Z,0.80
2017-08-21T16:22:07.226Z,0.70
2017-08-21T16:24:35.482Z,0.80
2017-08-21T16:27:03.751Z,0.90
2017-08-21T16:29:32.150Z,0.70
2017-08-21T16:32:00.434Z,0.90
2017-08-21T16:34:28.709Z,0.83
2017-08-21T16:36:56.993Z,0.80
2017-08-21T16:39:25.284Z,0.80
2017-08-21T16:41:54.312Z,0.80
2017-08-21T16:44:22.595Z,0.80
2017-08-21T16:46:50.845Z,1.03
2017-08-21T16:49:19.110Z,0.80
2017-08-21T16:51:47.397Z,0.90
2017-08-21T16:54:15.649Z,0.90
2017-08-21T16:56:43.920Z,0.80
2017-08-21T16:59:12.198Z,0.80
2017-08-21T17:01:40.446Z,0.80
2017-08-21T17:04:08.742Z,0.87
2017-08-21T17:06:36.992Z,0.80
2017-08-21T17:09:04.800Z,0.80
2017-08-21T17:11:33.834Z,0.80
2017-08-21T17:14:02.457Z,0.80
2017-08-21T17:16:30.701Z,0.73
2017-08-21T17:18:58.453Z,0.70
2017-08-21T17:21:26.734Z,0.70
2017-08-21T17:23:54.981Z,0.80
2017-08-21T17:26:23.280Z,0.87
2017-08-21T17:28:51.571Z,1.00
2017-08-21T17:31:19.862Z,1.10
2017-08-21T17:33:48.135Z,0.83
2017-08-21T17:36:16.404Z,0.80
2017-08-21T17:38:44.464Z,0.90
2017-08-21T17:41:12.781Z,0.80
2017-08-21T17:43:41.034Z,1.00
2017-08-21T17:46:09.284Z,1.20
2017-08-21T17:48:38.348Z,1.00
2017-08-21T17:51:07.402Z,1.57
2017-08-21T17:53:35.653Z,1.77
2017-08-21T17:56:03.955Z,1.63
2017-08-21T17:58:32.213Z,1.30
2017-08-21T18:01:01.254Z,1.63
2017-08-21T18:03:29.562Z,1.50
2017-08-21T18:05:57.864Z,1.50
2017-08-21T18:08:26.160Z,1.37
2017-08-21T18:10:54.462Z,1.40
2017-08-21T18:13:22.736Z,1.40
2017-08-21T18:15:50.991Z,1.20
2017-08-21T18:18:19.258Z,1.40
2017-08-21T18:20:47.505Z,1.20
2017-08-21T18:23:15.744Z,1.37
2017-08-21T18:25:44.030Z,1.60
2017-08-21T18:28:12.315Z,1.23
2017-08-21T18:30:40.571Z,1.10
2017-08-21T18:33:08.883Z,1.17
2017-08-21T18:35:37.162Z,1.10
2017-08-21T18:38:05.412Z,1.13
2017-08-21T18:40:33.677Z,1.13
2017-08-21T18:43:01.916Z,1.57
2017-08-21T18:45:30.200Z,1.13
2017-08-21T18:47:58.514Z,1.10
2017-08-21T18:50:26.798Z,1.30
2017-08-21T18:52:55.061Z,1.40
2017-08-21T18:55:23.457Z,1.10
2017-08-21T18:57:51.742Z,1.07
2017-08-21T19:00:20.022Z,1.10
2017-08-21T19:02:48.338Z,1.13
2017-08-21T19:05:17.282Z,1.53
2017-08-21T19:07:45.558Z,1.17
2017-08-21T19:10:14.623Z,1.00
2017-08-21T19:12:42.911Z,1.30
2017-08-21T19:15:11.204Z,1.13
2017-08-21T19:17:39.506Z,1.47
2017-08-21T19:20:07.789Z,1.27
2017-08-21T19:22:36.793Z,1.00
2017-08-21T19:25:05.086Z,1.20
2017-08-21T19:27:33.333Z,1.37
2017-08-21T19:30:01.593Z,1.00
2017-08-21T19:32:29.932Z,1.10
2017-08-21T19:34:58.187Z,0.97
2017-08-21T19:37:26.469Z,1.07
2017-08-21T19:39:54.558Z,1.30
2017-08-21T19:42:22.874Z,1.30
2017-08-21T19:44:51.164Z,1.10
2017-08-21T19:47:19.457Z,1.20
2017-08-21T19:49:47.706Z,1.00
2017-08-21T19:52:15.956Z,1.00
2017-08-21T19:54:45.088Z,1.00
2017-08-21T19:57:13.349Z,1.10
2017-08-21T19:59:41.602Z,1.27
2017-08-21T20:02:09.869Z,1.23
2017-08-21T20:04:38.151Z,1.17
2017-08-21T20:07:06.400Z,1.20
2017-08-21T20:09:34.710Z,1.10
2017-08-21T20:12:02.781Z,1.00
2017-08-21T20:14:31.076Z,1.00
2017-08-21T20:16:59.386Z,1.10
2017-08-21T20:19:27.629Z,1.00
2017-08-21T20:21:55.726Z,0.97
2017-08-21T20:24:24.023Z,0.90
2017-08-21T20:26:52.307Z,1.00
2017-08-21T20:29:20.548Z,0.97
2017-08-21T20:31:48.851Z,1.10
2017-08-21T20:34:17.136Z,0.97
2017-08-21T20:36:45.418Z,1.37
2017-08-21T20:39:13.722Z,1.10
2017-08-21T20:41:42.006Z,1.00
2017-08-21T20:44:10.248Z,1.23
2017-08-21T20:46:38.517Z,1.10
2017-08-21T20:49:06.770Z,0.97
2017-08-21T20:51:35.042Z,0.80
2017-08-21T20:54:03.127Z,0.90
2017-08-21T20:56:31.377Z,1.30
2017-08-21T20:58:59.626Z,1.70
2017-08-21T21:01:27.893Z,1.83
2017-08-21T21:03:56.165Z,1.80
2017-08-21T21:06:24.450Z,2.50
2017-08-21T21:08:52.771Z,2.40
2017-08-21T21:11:21.018Z,2.17
2017-08-21T21:13:49.303Z,2.30
2017-08-21T21:16:17.601Z,2.30
2017-08-21T21:18:45.889Z,2.20
2017-08-21T21:21:14.183Z,2.20
2017-08-21T21:23:42.506Z,1.90
2017-08-21T21:26:10.761Z,1.97
2017-08-21T21:28:39.015Z,1.87
2017-08-21T21:31:07.276Z,1.70
2017-08-21T21:33:35.525Z,1.90
2017-08-21T21:36:03.798Z,1.90
2017-08-21T21:38:32.102Z,2.30
2017-08-21T21:41:00.398Z,2.00
2017-08-21T21:43:28.645Z,2.37
2017-08-21T21:45:56.918Z,1.93
2017-08-21T21:48:25.170Z,2.07
2017-08-21T21:50:53.420Z,2.53
2017-08-21T21:53:21.685Z,2.07
2017-08-21T21:55:49.971Z,2.50
2017-08-21T21:58:18.224Z,2.50
2017-08-21T22:00:47.249Z,2.50
2017-08-21T22:03:15.497Z,2.00
2017-08-21T22:05:43.744Z,1.87
2017-08-21T22:08:12.052Z,2.20
2017-08-21T22:10:40.334Z,1.80
2017-08-21T22:13:08.613Z,1.70
2017-08-21T22:15:36.909Z,1.60
2017-08-21T22:18:05.157Z,1.97
2017-08-21T22:20:33.409Z,2.07
2017-08-21T22:23:01.677Z,1.97
2017-08-21T22:25:29.974Z,1.40
2017-08-21T22:27:58.310Z,1.50
2017-08-21T22:30:26.572Z,1.50
2017-08-21T22:32:54.834Z,1.50
2017-08-21T22:35:23.089Z,1.60
2017-08-21T22:37:51.385Z,1.40
2017-08-21T22:40:19.670Z,1.47
2017-08-21T22:42:47.917Z,1.63
2017-08-21T22:45:16.983Z,1.47
2017-08-21T22:47:45.257Z,1.23
2017-08-21T22:50:13.505Z,1.60
2017-08-21T22:52:42.573Z,1.33
2017-08-21T22:55:10.858Z,1.70
2017-08-21T22:57:39.113Z,1.30
2017-08-21T23:00:07.397Z,1.73
2017-08-21T23:02:35.870Z,1.53
2017-08-21T23:05:04.152Z,1.40
2017-08-21T23:07:32.444Z,1.30
2017-08-21T23:10:00.726Z,1.40
2017-08-21T23:12:29.011Z,1.47
2017-08-21T23:14:57.445Z,1.40
2017-08-21T23:17:25.717Z,1.43
2017-08-21T23:19:54.005Z,1.60
2017-08-21T23:22:22.110Z,1.40
2017-08-21T23:24:50.348Z,1.47
2017-08-21T23:27:18.639Z,1.40
2017-08-21T23:29:47.694Z,1.40
2017-08-21T23:32:15.951Z,1.20
2017-08-21T23:34:44.196Z,1.30
2017-08-21T23:37:12.470Z,1.23
2017-08-21T23:39:40.763Z,1.30
2017-08-21T23:42:09.017Z,1.43
2017-08-21T23:44:37.273Z,1.63
2017-08-21T23:47:05.520Z,1.17
2017-08-21T23:49:33.768Z,1.07
2017-08-21T23:52:02.070Z,1.30
2017-08-21T23:54:30.325Z,1.20
2017-08-21T23:56:58.573Z,1.17
2017-08-21T23:59:27.624Z,1.20
